sensor_id;sensor_type;location;lat;lon;timestamp;P1;durP1;ratioP1;P2;durP2;ratioP2
57790;SDS011;43621;51.798;21.588;2022-12-29T00:04:03;23.90;;;12.00;;
57790;SDS011;43621;51.798;21.588;2022-12-29T00:08:05;21.30;;;11.00;;
57790;SDS011;43621;51.798;21.588;2022-12-29T00:12:07;28.40;;;11.20;;
57790;SDS011;43621;51.798;21.588;2022-12-29T00:16:09;23.90;;;13.10;;
57790;SDS011;43621;51.798;21.588;2022-12-29T00:20:11;28.90;;;11.20;;
57790;SDS011;43621;51.798;21.588;2022-12-29T00:24:31;23.50;;;12.50;;
57790;SDS011;43621;51.798;21.588;2022-12-29T00:28:51;26.80;;;12.10;;
57790;SDS011;43621;51.798;21.588;2022-12-29T00:33:13;27.00;;;12.50;;
57790;SDS011;43621;51.798;21.588;2022-12-29T00:37:36;23.60;;;11.00;;
57790;SDS011;43621;51.798;21.588;2022-12-29T00:42:07;25.60;;;12.30;;
57790;SDS011;43621;51.798;21.588;2022-12-29T00:46:29;20.20;;;10.20;;
57790;SDS011;43621;51.798;21.588;2022-12-29T00:50:30;22.30;;;11.40;;
57790;SDS011;43621;51.798;21.588;2022-12-29T00:54:33;20.90;;;10.90;;
57790;SDS011;43621;51.798;21.588;2022-12-29T00:58:37;20.70;;;10.30;;
57790;SDS011;43621;51.798;21.588;2022-12-29T01:02:38;24.70;;;10.60;;
57790;SDS011;43621;51.798;21.588;2022-12-29T01:06:40;21.00;;;10.80;;
57790;SDS011;43621;51.798;21.588;2022-12-29T01:10:43;20.20;;;9.90;;
57790;SDS011;43621;51.798;21.588;2022-12-29T01:14:44;18.20;;;9.50;;
57790;SDS011;43621;51.798;21.588;2022-12-29T01:18:46;17.40;;;9.50;;
57790;SDS011;43621;51.798;21.588;2022-12-29T01:22:48;16.60;;;9.10;;
57790;SDS011;43621;51.798;21.588;2022-12-29T01:26:50;20.50;;;9.40;;
57790;SDS011;43621;51.798;21.588;2022-12-29T01:30:52;20.70;;;10.30;;
57790;SDS011;43621;51.798;21.588;2022-12-29T01:34:53;21.20;;;9.70;;
57790;SDS011;43621;51.798;21.588;2022-12-29T01:38:55;21.90;;;9.20;;
57790;SDS011;43621;51.798;21.588;2022-12-29T01:42:57;21.00;;;10.40;;
57790;SDS011;43621;51.798;21.588;2022-12-29T01:46:59;17.40;;;9.30;;
57790;SDS011;43621;51.798;21.588;2022-12-29T01:51:01;22.10;;;9.80;;
57790;SDS011;43621;51.798;21.588;2022-12-29T01:55:03;17.40;;;9.00;;
57790;SDS011;43621;51.798;21.588;2022-12-29T01:59:08;21.30;;;10.40;;
57790;SDS011;43621;51.798;21.588;2022-12-29T02:03:16;21.00;;;9.10;;
57790;SDS011;43621;51.798;21.588;2022-12-29T02:07:21;18.10;;;9.00;;
57790;SDS011;43621;51.798;21.588;2022-12-29T02:11:26;17.70;;;9.40;;
57790;SDS011;43621;51.798;21.588;2022-12-29T02:33:06;14.70;;;7.70;;
57790;SDS011;43621;51.798;21.588;2022-12-29T02:41:44;16.00;;;8.60;;
57790;SDS011;43621;51.798;21.588;2022-12-29T02:50:25;16.10;;;8.50;;
57790;SDS011;43621;51.798;21.588;2022-12-29T02:54:35;18.10;;;8.80;;
57790;SDS011;43621;51.798;21.588;2022-12-29T02:58:44;18.80;;;8.00;;
57790;SDS011;43621;51.798;21.588;2022-12-29T03:02:56;19.50;;;8.30;;
57790;SDS011;43621;51.798;21.588;2022-12-29T03:16:50;16.00;;;7.90;;
57790;SDS011;43621;51.798;21.588;2022-12-29T03:21:02;16.40;;;8.90;;
57790;SDS011;43621;51.798;21.588;2022-12-29T03:25:26;19.60;;;8.50;;
57790;SDS011;43621;51.798;21.588;2022-12-29T03:29:33;19.40;;;9.40;;
57790;SDS011;43621;51.798;21.588;2022-12-29T03:33:41;15.50;;;7.70;;
57790;SDS011;43621;51.798;21.588;2022-12-29T03:38:21;15.80;;;6.60;;
57790;SDS011;43621;51.798;21.588;2022-12-29T03:42:36;17.80;;;7.90;;
57790;SDS011;43621;51.798;21.588;2022-12-29T03:46:41;15.20;;;7.20;;
57790;SDS011;43621;51.798;21.588;2022-12-29T03:50:42;12.50;;;6.90;;
57790;SDS011;43621;51.798;21.588;2022-12-29T03:54:44;17.40;;;7.70;;
57790;SDS011;43621;51.798;21.588;2022-12-29T03:58:46;19.20;;;9.00;;
57790;SDS011;43621;51.798;21.588;2022-12-29T04:02:48;19.40;;;8.80;;
57790;SDS011;43621;51.798;21.588;2022-12-29T04:06:50;19.40;;;9.00;;
57790;SDS011;43621;51.798;21.588;2022-12-29T04:10:51;21.30;;;8.60;;
57790;SDS011;43621;51.798;21.588;2022-12-29T04:14:53;16.20;;;9.10;;
57790;SDS011;43621;51.798;21.588;2022-12-29T04:18:55;14.50;;;8.50;;
57790;SDS011;43621;51.798;21.588;2022-12-29T04:23:03;20.30;;;9.80;;
57790;SDS011;43621;51.798;21.588;2022-12-29T04:27:06;15.70;;;8.60;;
57790;SDS011;43621;51.798;21.588;2022-12-29T04:31:08;19.20;;;8.60;;
57790;SDS011;43621;51.798;21.588;2022-12-29T04:35:10;18.50;;;8.90;;
57790;SDS011;43621;51.798;21.588;2022-12-29T04:39:12;18.00;;;9.10;;
57790;SDS011;43621;51.798;21.588;2022-12-29T04:43:14;18.70;;;9.90;;
57790;SDS011;43621;51.798;21.588;2022-12-29T04:47:17;19.20;;;8.70;;
57790;SDS011;43621;51.798;21.588;2022-12-29T04:51:18;14.90;;;7.80;;
57790;SDS011;43621;51.798;21.588;2022-12-29T04:55:20;15.70;;;8.40;;
57790;SDS011;43621;51.798;21.588;2022-12-29T04:59:22;16.30;;;8.00;;
57790;SDS011;43621;51.798;21.588;2022-12-29T05:03:24;15.10;;;7.20;;
57790;SDS011;43621;51.798;21.588;2022-12-29T05:07:26;13.90;;;7.30;;
57790;SDS011;43621;51.798;21.588;2022-12-29T05:11:28;11.60;;;6.90;;
57790;SDS011;43621;51.798;21.588;2022-12-29T05:15:29;15.20;;;6.80;;
57790;SDS011;43621;51.798;21.588;2022-12-29T05:19:31;14.40;;;7.20;;
57790;SDS011;43621;51.798;21.588;2022-12-29T05:23:33;19.50;;;7.90;;
57790;SDS011;43621;51.798;21.588;2022-12-29T05:27:35;15.70;;;7.60;;
57790;SDS011;43621;51.798;21.588;2022-12-29T05:31:36;14.80;;;7.70;;
57790;SDS011;43621;51.798;21.588;2022-12-29T05:35:38;13.70;;;7.00;;
57790;SDS011;43621;51.798;21.588;2022-12-29T05:39:40;11.70;;;6.90;;
57790;SDS011;43621;51.798;21.588;2022-12-29T05:43:42;12.30;;;6.60;;
57790;SDS011;43621;51.798;21.588;2022-12-29T05:47:44;13.00;;;6.90;;
57790;SDS011;43621;51.798;21.588;2022-12-29T05:51:45;14.90;;;6.90;;
57790;SDS011;43621;51.798;21.588;2022-12-29T05:55:47;17.10;;;7.90;;
57790;SDS011;43621;51.798;21.588;2022-12-29T05:59:49;12.50;;;7.10;;
57790;SDS011;43621;51.798;21.588;2022-12-29T06:03:51;12.00;;;6.00;;
57790;SDS011;43621;51.798;21.588;2022-12-29T06:07:53;13.00;;;6.60;;
57790;SDS011;43621;51.798;21.588;2022-12-29T06:11:55;16.00;;;7.70;;
57790;SDS011;43621;51.798;21.588;2022-12-29T06:15:56;14.80;;;6.60;;
57790;SDS011;43621;51.798;21.588;2022-12-29T06:19:58;17.90;;;8.20;;
57790;SDS011;43621;51.798;21.588;2022-12-29T06:24:00;19.20;;;9.10;;
57790;SDS011;43621;51.798;21.588;2022-12-29T06:28:02;14.00;;;7.70;;
57790;SDS011;43621;51.798;21.588;2022-12-29T06:32:04;16.70;;;8.90;;
57790;SDS011;43621;51.798;21.588;2022-12-29T06:36:06;16.50;;;9.40;;
57790;SDS011;43621;51.798;21.588;2022-12-29T06:40:08;18.50;;;9.10;;
57790;SDS011;43621;51.798;21.588;2022-12-29T06:44:11;15.80;;;9.20;;
57790;SDS011;43621;51.798;21.588;2022-12-29T06:48:12;12.90;;;7.20;;
57790;SDS011;43621;51.798;21.588;2022-12-29T06:52:14;19.70;;;10.10;;
57790;SDS011;43621;51.798;21.588;2022-12-29T06:56:16;21.20;;;10.50;;
57790;SDS011;43621;51.798;21.588;2022-12-29T07:00:18;19.00;;;10.40;;
57790;SDS011;43621;51.798;21.588;2022-12-29T07:04:20;21.10;;;11.60;;
57790;SDS011;43621;51.798;21.588;2022-12-29T07:08:21;19.30;;;9.90;;
57790;SDS011;43621;51.798;21.588;2022-12-29T07:12:23;39.80;;;20.10;;
57790;SDS011;43621;51.798;21.588;2022-12-29T07:16:25;23.70;;;12.40;;
57790;SDS011;43621;51.798;21.588;2022-12-29T07:20:27;21.10;;;10.70;;
57790;SDS011;43621;51.798;21.588;2022-12-29T07:24:29;36.40;;;18.70;;
57790;SDS011;43621;51.798;21.588;2022-12-29T07:28:31;21.80;;;11.70;;
57790;SDS011;43621;51.798;21.588;2022-12-29T07:32:36;20.20;;;9.80;;
57790;SDS011;43621;51.798;21.588;2022-12-29T07:36:38;28.30;;;16.10;;
57790;SDS011;43621;51.798;21.588;2022-12-29T07:40:39;29.50;;;13.80;;
57790;SDS011;43621;51.798;21.588;2022-12-29T07:44:41;25.70;;;12.40;;
57790;SDS011;43621;51.798;21.588;2022-12-29T07:48:43;24.90;;;13.70;;
57790;SDS011;43621;51.798;21.588;2022-12-29T07:52:45;24.80;;;12.20;;
57790;SDS011;43621;51.798;21.588;2022-12-29T07:56:49;29.40;;;16.00;;
57790;SDS011;43621;51.798;21.588;2022-12-29T08:00:54;26.90;;;14.80;;
57790;SDS011;43621;51.798;21.588;2022-12-29T08:04:56;13.30;;;9.10;;
57790;SDS011;43621;51.798;21.588;2022-12-29T08:08:58;15.30;;;10.40;;
57790;SDS011;43621;51.798;21.588;2022-12-29T08:13:01;10.70;;;7.60;;
57790;SDS011;43621;51.798;21.588;2022-12-29T08:17:03;14.60;;;8.30;;
57790;SDS011;43621;51.798;21.588;2022-12-29T08:21:05;16.00;;;9.70;;
57790;SDS011;43621;51.798;21.588;2022-12-29T08:25:07;15.30;;;9.50;;
57790;SDS011;43621;51.798;21.588;2022-12-29T08:29:09;14.90;;;9.40;;
57790;SDS011;43621;51.798;21.588;2022-12-29T08:33:11;22.60;;;13.70;;
57790;SDS011;43621;51.798;21.588;2022-12-29T08:37:13;16.60;;;10.70;;
57790;SDS011;43621;51.798;21.588;2022-12-29T08:41:15;20.80;;;11.60;;
57790;SDS011;43621;51.798;21.588;2022-12-29T08:45:16;17.20;;;9.90;;
57790;SDS011;43621;51.798;21.588;2022-12-29T08:49:18;13.80;;;8.90;;
57790;SDS011;43621;51.798;21.588;2022-12-29T08:53:20;22.30;;;12.80;;
57790;SDS011;43621;51.798;21.588;2022-12-29T08:57:22;18.30;;;10.20;;
57790;SDS011;43621;51.798;21.588;2022-12-29T09:01:24;16.90;;;10.10;;
57790;SDS011;43621;51.798;21.588;2022-12-29T09:05:25;12.70;;;8.70;;
57790;SDS011;43621;51.798;21.588;2022-12-29T09:09:27;17.90;;;11.50;;
57790;SDS011;43621;51.798;21.588;2022-12-29T09:13:29;20.80;;;11.20;;
57790;SDS011;43621;51.798;21.588;2022-12-29T09:17:31;16.20;;;9.90;;
57790;SDS011;43621;51.798;21.588;2022-12-29T09:21:48;20.40;;;11.00;;
57790;SDS011;43621;51.798;21.588;2022-12-29T09:25:49;15.60;;;9.20;;
57790;SDS011;43621;51.798;21.588;2022-12-29T09:29:51;16.50;;;9.90;;
57790;SDS011;43621;51.798;21.588;2022-12-29T09:33:53;22.20;;;12.20;;
57790;SDS011;43621;51.798;21.588;2022-12-29T09:37:55;18.80;;;9.80;;
57790;SDS011;43621;51.798;21.588;2022-12-29T09:50:30;28.70;;;14.50;;
57790;SDS011;43621;51.798;21.588;2022-12-29T09:54:39;36.80;;;16.80;;
57790;SDS011;43621;51.798;21.588;2022-12-29T09:58:53;38.50;;;16.20;;
57790;SDS011;43621;51.798;21.588;2022-12-29T10:03:17;24.90;;;11.20;;
57790;SDS011;43621;51.798;21.588;2022-12-29T10:20:53;22.70;;;12.00;;
57790;SDS011;43621;51.798;21.588;2022-12-29T10:24:58;24.30;;;13.60;;
57790;SDS011;43621;51.798;21.588;2022-12-29T10:29:06;24.50;;;12.50;;
57790;SDS011;43621;51.798;21.588;2022-12-29T10:33:34;17.00;;;10.00;;
57790;SDS011;43621;51.798;21.588;2022-12-29T10:46:19;13.60;;;9.90;;
57790;SDS011;43621;51.798;21.588;2022-12-29T10:50:24;17.90;;;10.00;;
57790;SDS011;43621;51.798;21.588;2022-12-29T10:54:39;17.30;;;9.10;;
57790;SDS011;43621;51.798;21.588;2022-12-29T10:58:48;22.30;;;11.60;;
57790;SDS011;43621;51.798;21.588;2022-12-29T11:07:01;33.50;;;18.90;;
57790;SDS011;43621;51.798;21.588;2022-12-29T11:11:05;27.50;;;16.60;;
57790;SDS011;43621;51.798;21.588;2022-12-29T11:15:14;15.30;;;10.20;;
57790;SDS011;43621;51.798;21.588;2022-12-29T11:19:21;16.00;;;10.20;;
57790;SDS011;43621;51.798;21.588;2022-12-29T11:23:35;15.30;;;9.60;;
57790;SDS011;43621;51.798;21.588;2022-12-29T11:27:39;14.30;;;8.60;;
57790;SDS011;43621;51.798;21.588;2022-12-29T11:32:04;16.20;;;8.80;;
57790;SDS011;43621;51.798;21.588;2022-12-29T11:36:16;12.50;;;7.60;;
57790;SDS011;43621;51.798;21.588;2022-12-29T11:40:21;17.80;;;9.60;;
57790;SDS011;43621;51.798;21.588;2022-12-29T11:44:23;22.80;;;10.60;;
57790;SDS011;43621;51.798;21.588;2022-12-29T11:48:28;16.40;;;8.50;;
57790;SDS011;43621;51.798;21.588;2022-12-29T11:52:35;22.00;;;11.70;;
57790;SDS011;43621;51.798;21.588;2022-12-29T11:56:41;23.50;;;12.30;;
57790;SDS011;43621;51.798;21.588;2022-12-29T12:00:45;19.80;;;10.90;;
57790;SDS011;43621;51.798;21.588;2022-12-29T12:04:53;17.90;;;10.00;;
57790;SDS011;43621;51.798;21.588;2022-12-29T12:09:03;23.00;;;12.00;;
57790;SDS011;43621;51.798;21.588;2022-12-29T12:13:37;17.10;;;10.10;;
57790;SDS011;43621;51.798;21.588;2022-12-29T12:17:47;14.60;;;9.20;;
57790;SDS011;43621;51.798;21.588;2022-12-29T12:22:10;18.30;;;10.60;;
57790;SDS011;43621;51.798;21.588;2022-12-29T12:26:20;19.00;;;11.20;;
57790;SDS011;43621;51.798;21.588;2022-12-29T12:30:30;18.40;;;10.70;;
57790;SDS011;43621;51.798;21.588;2022-12-29T12:34:43;21.40;;;10.80;;
57790;SDS011;43621;51.798;21.588;2022-12-29T12:38:55;22.40;;;10.90;;
57790;SDS011;43621;51.798;21.588;2022-12-29T12:56:51;20.90;;;10.30;;
57790;SDS011;43621;51.798;21.588;2022-12-29T13:10:01;35.30;;;16.80;;
57790;SDS011;43621;51.798;21.588;2022-12-29T13:22:18;35.50;;;18.70;;
57790;SDS011;43621;51.798;21.588;2022-12-29T13:26:35;34.20;;;19.20;;
57790;SDS011;43621;51.798;21.588;2022-12-29T13:31:02;31.50;;;16.90;;
57790;SDS011;43621;51.798;21.588;2022-12-29T13:39:50;71.20;;;40.80;;
57790;SDS011;43621;51.798;21.588;2022-12-29T13:43:56;81.70;;;58.80;;
57790;SDS011;43621;51.798;21.588;2022-12-29T13:56:50;40.40;;;23.10;;
57790;SDS011;43621;51.798;21.588;2022-12-29T14:14:50;41.50;;;23.00;;
57790;SDS011;43621;51.798;21.588;2022-12-29T14:18:52;40.90;;;25.50;;
57790;SDS011;43621;51.798;21.588;2022-12-29T14:23:45;51.30;;;29.30;;
57790;SDS011;43621;51.798;21.588;2022-12-29T14:27:50;39.40;;;21.50;;
57790;SDS011;43621;51.798;21.588;2022-12-29T14:31:54;43.50;;;22.00;;
57790;SDS011;43621;51.798;21.588;2022-12-29T14:35:56;46.80;;;25.50;;
57790;SDS011;43621;51.798;21.588;2022-12-29T14:40:15;46.20;;;25.20;;
57790;SDS011;43621;51.798;21.588;2022-12-29T14:44:28;51.80;;;28.40;;
57790;SDS011;43621;51.798;21.588;2022-12-29T14:48:33;44.60;;;26.00;;
57790;SDS011;43621;51.798;21.588;2022-12-29T14:52:46;38.40;;;22.50;;
57790;SDS011;43621;51.798;21.588;2022-12-29T14:56:50;37.60;;;21.00;;
57790;SDS011;43621;51.798;21.588;2022-12-29T15:00:52;47.30;;;25.20;;
57790;SDS011;43621;51.798;21.588;2022-12-29T15:04:54;36.70;;;19.30;;
57790;SDS011;43621;51.798;21.588;2022-12-29T15:13:39;36.80;;;16.30;;
57790;SDS011;43621;51.798;21.588;2022-12-29T15:17:43;26.50;;;14.70;;
57790;SDS011;43621;51.798;21.588;2022-12-29T15:21:45;35.30;;;16.90;;
57790;SDS011;43621;51.798;21.588;2022-12-29T15:25:56;69.00;;;34.20;;
57790;SDS011;43621;51.798;21.588;2022-12-29T15:30:04;45.70;;;21.60;;
57790;SDS011;43621;51.798;21.588;2022-12-29T15:34:14;41.30;;;21.40;;
57790;SDS011;43621;51.798;21.588;2022-12-29T15:38:19;30.10;;;17.00;;
57790;SDS011;43621;51.798;21.588;2022-12-29T15:47:17;50.30;;;24.40;;
57790;SDS011;43621;51.798;21.588;2022-12-29T15:51:28;50.20;;;26.10;;
57790;SDS011;43621;51.798;21.588;2022-12-29T15:55:34;48.50;;;28.20;;
57790;SDS011;43621;51.798;21.588;2022-12-29T15:59:45;52.00;;;28.50;;
57790;SDS011;43621;51.798;21.588;2022-12-29T16:03:48;67.20;;;37.10;;
57790;SDS011;43621;51.798;21.588;2022-12-29T16:07:54;83.90;;;46.70;;
57790;SDS011;43621;51.798;21.588;2022-12-29T16:12:03;46.70;;;27.60;;
57790;SDS011;43621;51.798;21.588;2022-12-29T16:16:08;47.90;;;27.10;;
57790;SDS011;43621;51.798;21.588;2022-12-29T16:20:37;47.80;;;25.00;;
57790;SDS011;43621;51.798;21.588;2022-12-29T16:24:42;49.00;;;26.10;;
57790;SDS011;43621;51.798;21.588;2022-12-29T16:28:44;37.20;;;20.30;;
57790;SDS011;43621;51.798;21.588;2022-12-29T16:33:00;38.90;;;20.30;;
57790;SDS011;43621;51.798;21.588;2022-12-29T16:37:31;74.20;;;35.50;;
57790;SDS011;43621;51.798;21.588;2022-12-29T16:41:36;51.40;;;26.00;;
57790;SDS011;43621;51.798;21.588;2022-12-29T16:49:50;49.20;;;26.10;;
57790;SDS011;43621;51.798;21.588;2022-12-29T16:53:53;46.70;;;24.50;;
57790;SDS011;43621;51.798;21.588;2022-12-29T16:57:56;41.70;;;21.50;;
57790;SDS011;43621;51.798;21.588;2022-12-29T17:02:01;60.80;;;27.20;;
57790;SDS011;43621;51.798;21.588;2022-12-29T17:06:15;81.10;;;36.00;;
57790;SDS011;43621;51.798;21.588;2022-12-29T17:10:21;69.50;;;33.00;;
57790;SDS011;43621;51.798;21.588;2022-12-29T17:14:51;91.10;;;41.50;;
57790;SDS011;43621;51.798;21.588;2022-12-29T17:18:56;92.50;;;41.30;;
57790;SDS011;43621;51.798;21.588;2022-12-29T17:22:58;68.30;;;31.70;;
57790;SDS011;43621;51.798;21.588;2022-12-29T17:27:00;72.70;;;35.70;;
57790;SDS011;43621;51.798;21.588;2022-12-29T17:31:03;57.70;;;28.00;;
57790;SDS011;43621;51.798;21.588;2022-12-29T17:35:14;57.70;;;29.40;;
57790;SDS011;43621;51.798;21.588;2022-12-29T17:39:17;58.60;;;30.10;;
57790;SDS011;43621;51.798;21.588;2022-12-29T17:43:19;56.40;;;28.90;;
57790;SDS011;43621;51.798;21.588;2022-12-29T17:47:22;47.00;;;24.80;;
57790;SDS011;43621;51.798;21.588;2022-12-29T17:51:24;48.90;;;27.80;;
57790;SDS011;43621;51.798;21.588;2022-12-29T17:55:26;44.90;;;24.40;;
57790;SDS011;43621;51.798;21.588;2022-12-29T17:59:28;41.10;;;23.80;;
57790;SDS011;43621;51.798;21.588;2022-12-29T18:03:32;51.70;;;28.80;;
57790;SDS011;43621;51.798;21.588;2022-12-29T18:07:35;63.60;;;30.20;;
57790;SDS011;43621;51.798;21.588;2022-12-29T18:11:38;56.50;;;30.70;;
57790;SDS011;43621;51.798;21.588;2022-12-29T18:15:41;69.60;;;37.10;;
57790;SDS011;43621;51.798;21.588;2022-12-29T18:19:43;63.40;;;32.20;;
57790;SDS011;43621;51.798;21.588;2022-12-29T18:23:45;68.30;;;33.30;;
57790;SDS011;43621;51.798;21.588;2022-12-29T18:27:48;59.40;;;31.00;;
57790;SDS011;43621;51.798;21.588;2022-12-29T18:31:49;55.00;;;27.60;;
57790;SDS011;43621;51.798;21.588;2022-12-29T18:40:04;48.90;;;25.70;;
57790;SDS011;43621;51.798;21.588;2022-12-29T18:44:10;53.00;;;28.70;;
57790;SDS011;43621;51.798;21.588;2022-12-29T18:48:14;80.30;;;34.20;;
57790;SDS011;43621;51.798;21.588;2022-12-29T18:52:17;140.30;;;52.40;;
57790;SDS011;43621;51.798;21.588;2022-12-29T18:56:19;177.80;;;63.50;;
57790;SDS011;43621;51.798;21.588;2022-12-29T19:00:23;161.20;;;60.90;;
57790;SDS011;43621;51.798;21.588;2022-12-29T19:04:24;105.60;;;45.80;;
57790;SDS011;43621;51.798;21.588;2022-12-29T19:08:26;75.60;;;35.40;;
57790;SDS011;43621;51.798;21.588;2022-12-29T19:12:28;70.70;;;33.30;;
57790;SDS011;43621;51.798;21.588;2022-12-29T19:16:30;92.60;;;46.20;;
57790;SDS011;43621;51.798;21.588;2022-12-29T19:20:34;65.70;;;31.50;;
57790;SDS011;43621;51.798;21.588;2022-12-29T19:24:39;69.20;;;33.20;;
57790;SDS011;43621;51.798;21.588;2022-12-29T19:28:40;62.60;;;32.30;;
57790;SDS011;43621;51.798;21.588;2022-12-29T19:32:42;54.50;;;27.20;;
57790;SDS011;43621;51.798;21.588;2022-12-29T19:36:44;49.90;;;25.80;;
57790;SDS011;43621;51.798;21.588;2022-12-29T19:40:47;46.90;;;24.80;;
57790;SDS011;43621;51.798;21.588;2022-12-29T19:44:53;46.60;;;22.90;;
57790;SDS011;43621;51.798;21.588;2022-12-29T19:48:55;41.70;;;20.90;;
57790;SDS011;43621;51.798;21.588;2022-12-29T19:52:59;47.10;;;26.30;;
57790;SDS011;43621;51.798;21.588;2022-12-29T19:57:01;48.40;;;25.50;;
57790;SDS011;43621;51.798;21.588;2022-12-29T20:01:24;50.10;;;25.80;;
57790;SDS011;43621;51.798;21.588;2022-12-29T20:05:25;72.00;;;33.70;;
57790;SDS011;43621;51.798;21.588;2022-12-29T20:09:27;84.00;;;39.10;;
57790;SDS011;43621;51.798;21.588;2022-12-29T20:13:30;69.30;;;35.90;;
57790;SDS011;43621;51.798;21.588;2022-12-29T20:17:33;65.30;;;34.40;;
57790;SDS011;43621;51.798;21.588;2022-12-29T20:21:35;40.30;;;22.80;;
57790;SDS011;43621;51.798;21.588;2022-12-29T20:25:37;48.60;;;26.20;;
57790;SDS011;43621;51.798;21.588;2022-12-29T20:29:40;54.80;;;26.10;;
57790;SDS011;43621;51.798;21.588;2022-12-29T20:33:43;42.60;;;24.50;;
57790;SDS011;43621;51.798;21.588;2022-12-29T20:37:46;44.20;;;23.70;;
57790;SDS011;43621;51.798;21.588;2022-12-29T20:41:47;41.90;;;23.70;;
57790;SDS011;43621;51.798;21.588;2022-12-29T20:45:50;44.30;;;22.90;;
57790;SDS011;43621;51.798;21.588;2022-12-29T20:49:52;40.30;;;20.40;;
57790;SDS011;43621;51.798;21.588;2022-12-29T20:53:54;35.00;;;21.00;;
57790;SDS011;43621;51.798;21.588;2022-12-29T20:57:56;43.30;;;21.20;;
57790;SDS011;43621;51.798;21.588;2022-12-29T21:02:00;36.80;;;19.80;;
57790;SDS011;43621;51.798;21.588;2022-12-29T21:06:02;47.30;;;23.40;;
57790;SDS011;43621;51.798;21.588;2022-12-29T21:10:04;53.60;;;24.90;;
57790;SDS011;43621;51.798;21.588;2022-12-29T21:14:06;65.60;;;30.80;;
57790;SDS011;43621;51.798;21.588;2022-12-29T21:18:10;63.90;;;28.50;;
57790;SDS011;43621;51.798;21.588;2022-12-29T21:22:12;54.00;;;25.40;;
57790;SDS011;43621;51.798;21.588;2022-12-29T21:26:15;42.30;;;21.20;;
57790;SDS011;43621;51.798;21.588;2022-12-29T21:30:19;35.20;;;18.40;;
57790;SDS011;43621;51.798;21.588;2022-12-29T21:34:21;46.40;;;21.50;;
57790;SDS011;43621;51.798;21.588;2022-12-29T21:38:23;45.00;;;24.50;;
57790;SDS011;43621;51.798;21.588;2022-12-29T21:42:24;45.80;;;22.60;;
57790;SDS011;43621;51.798;21.588;2022-12-29T21:46:30;42.10;;;22.70;;
57790;SDS011;43621;51.798;21.588;2022-12-29T21:50:32;47.00;;;24.80;;
57790;SDS011;43621;51.798;21.588;2022-12-29T21:54:57;40.00;;;23.00;;
57790;SDS011;43621;51.798;21.588;2022-12-29T21:59:01;42.70;;;24.00;;
57790;SDS011;43621;51.798;21.588;2022-12-29T22:03:22;60.40;;;31.60;;
57790;SDS011;43621;51.798;21.588;2022-12-29T22:07:43;42.00;;;22.10;;
57790;SDS011;43621;51.798;21.588;2022-12-29T22:12:03;44.00;;;23.50;;
57790;SDS011;43621;51.798;21.588;2022-12-29T22:16:24;36.80;;;20.50;;
57790;SDS011;43621;51.798;21.588;2022-12-29T22:20:27;35.50;;;19.70;;
57790;SDS011;43621;51.798;21.588;2022-12-29T22:24:34;50.70;;;22.80;;
57790;SDS011;43621;51.798;21.588;2022-12-29T22:28:37;42.80;;;21.40;;
57790;SDS011;43621;51.798;21.588;2022-12-29T22:32:40;41.50;;;21.10;;
57790;SDS011;43621;51.798;21.588;2022-12-29T22:36:42;48.00;;;22.90;;
57790;SDS011;43621;51.798;21.588;2022-12-29T22:40:44;42.00;;;21.70;;
57790;SDS011;43621;51.798;21.588;2022-12-29T22:44:46;41.00;;;21.80;;
57790;SDS011;43621;51.798;21.588;2022-12-29T22:48:47;32.70;;;17.40;;
57790;SDS011;43621;51.798;21.588;2022-12-29T22:52:49;32.80;;;16.80;;
57790;SDS011;43621;51.798;21.588;2022-12-29T22:56:52;31.80;;;18.50;;
57790;SDS011;43621;51.798;21.588;2022-12-29T23:00:54;29.10;;;15.90;;
57790;SDS011;43621;51.798;21.588;2022-12-29T23:04:55;35.50;;;18.50;;
57790;SDS011;43621;51.798;21.588;2022-12-29T23:08:57;36.80;;;18.10;;
57790;SDS011;43621;51.798;21.588;2022-12-29T23:13:02;40.80;;;19.10;;
57790;SDS011;43621;51.798;21.588;2022-12-29T23:17:04;38.60;;;19.40;;
57790;SDS011;43621;51.798;21.588;2022-12-29T23:21:06;42.00;;;20.00;;
57790;SDS011;43621;51.798;21.588;2022-12-29T23:25:08;35.40;;;18.40;;
57790;SDS011;43621;51.798;21.588;2022-12-29T23:29:11;32.50;;;17.60;;
57790;SDS011;43621;51.798;21.588;2022-12-29T23:33:18;33.60;;;17.90;;
57790;SDS011;43621;51.798;21.588;2022-12-29T23:37:20;42.40;;;21.30;;
57790;SDS011;43621;51.798;21.588;2022-12-29T23:41:22;35.30;;;18.90;;
57790;SDS011;43621;51.798;21.588;2022-12-29T23:45:24;35.80;;;19.20;;
57790;SDS011;43621;51.798;21.588;2022-12-29T23:49:26;37.90;;;19.80;;
57790;SDS011;43621;51.798;21.588;2022-12-29T23:53:28;37.80;;;18.70;;
57790;SDS011;43621;51.798;21.588;2022-12-29T23:57:30;34.20;;;17.90;;
